createdAt,value
2022-11-05T00:04:29.726Z,10.60
2022-11-05T00:08:59.896Z,10.60
2022-11-05T00:13:46.846Z,10.50
2022-11-05T00:18:06.647Z,10.50
2022-11-05T00:22:38.250Z,10.50
2022-11-05T00:26:53.299Z,10.60
2022-11-05T00:31:09.824Z,10.60
2022-11-05T00:35:23.888Z,10.60
2022-11-05T00:39:37.545Z,10.70
2022-11-05T00:44:10.189Z,10.70
2022-11-05T00:48:41.528Z,10.80
2022-11-05T00:52:56.805Z,10.80
2022-11-05T00:57:10.700Z,10.80
2022-11-05T01:01:25.873Z,10.80
2022-11-05T01:05:41.217Z,10.90
2022-11-05T01:09:55.036Z,10.80
2022-11-05T01:14:11.007Z,10.80
2022-11-05T01:18:26.154Z,10.80
2022-11-05T01:22:40.028Z,10.80
2022-11-05T01:26:53.691Z,10.80
2022-11-05T01:31:07.621Z,10.70
2022-11-05T01:35:22.802Z,10.70
2022-11-05T01:39:36.538Z,10.70
2022-11-05T01:43:52.248Z,10.70
2022-11-05T01:48:09.024Z,10.60
2022-11-05T01:52:26.248Z,10.60
2022-11-05T01:56:45.603Z,10.60
2022-11-05T02:00:59.416Z,10.60
2022-11-05T02:05:15.721Z,10.60
2022-11-05T02:09:35.721Z,10.50
2022-11-05T02:13:50.364Z,10.50
2022-11-05T02:18:16.726Z,10.40
2022-11-05T02:22:58.325Z,10.40
2022-11-05T02:27:19.966Z,10.40
2022-11-05T02:31:43.538Z,10.30
2022-11-05T02:36:20.680Z,10.40
2022-11-05T02:40:42.090Z,10.40
2022-11-05T02:45:02.453Z,10.40
2022-11-05T02:49:28.017Z,10.40
2022-11-05T02:53:49.843Z,10.40
2022-11-05T02:58:04.991Z,10.40
2022-11-05T03:02:19.027Z,10.40
2022-11-05T03:07:11.560Z,10.40
2022-11-05T03:11:29.741Z,10.40
2022-11-05T03:15:51.898Z,10.40
2022-11-05T03:20:16.243Z,10.40
2022-11-05T03:24:34.136Z,10.40
2022-11-05T03:28:52.920Z,10.30
2022-11-05T03:33:12.820Z,10.20
2022-11-05T03:37:30.982Z,10.20
2022-11-05T03:41:47.935Z,10.20
2022-11-05T03:46:06.144Z,10.20
2022-11-05T03:50:25.014Z,10.20
2022-11-05T03:54:39.145Z,10.10
2022-11-05T03:58:58.718Z,10.20
2022-11-05T04:03:14.462Z,10.10
2022-11-05T04:07:45.627Z,10.20
2022-11-05T04:12:17.191Z,10.20
2022-11-05T04:16:48.187Z,10.10
2022-11-05T04:21:20.714Z,10.20
2022-11-05T04:25:34.739Z,10.10
2022-11-05T04:30:05.799Z,10.10
2022-11-05T04:34:22.065Z,10.10
2022-11-05T04:38:37.237Z,10.00
2022-11-05T04:42:50.934Z,9.90
2022-11-05T04:47:05.895Z,9.80
2022-11-05T04:51:19.855Z,9.60
2022-11-05T04:55:34.955Z,9.50
2022-11-05T04:59:49.741Z,9.40
2022-11-05T05:04:03.550Z,9.30
2022-11-05T05:08:17.200Z,9.20
2022-11-05T05:12:33.445Z,9.20
2022-11-05T05:16:47.157Z,9.10
2022-11-05T05:21:21.339Z,9.10
2022-11-05T05:25:34.999Z,9.10
2022-11-05T05:29:50.697Z,9.10
2022-11-05T05:34:05.328Z,9.00
2022-11-05T05:38:18.971Z,9.00
2022-11-05T05:42:32.752Z,8.90
2022-11-05T05:46:47.807Z,8.90
2022-11-05T05:51:02.828Z,8.80
2022-11-05T05:55:16.915Z,8.80
2022-11-05T05:59:30.607Z,8.80
2022-11-05T06:03:45.701Z,8.70
2022-11-05T06:07:59.670Z,8.70
2022-11-05T06:12:13.701Z,8.60
2022-11-05T06:16:27.780Z,8.60
2022-11-05T06:20:42.872Z,8.60
2022-11-05T06:24:57.100Z,8.60
2022-11-05T06:29:11.068Z,8.50
2022-11-05T06:33:25.174Z,8.50
2022-11-05T06:37:41.083Z,8.50
2022-11-05T06:42:17.090Z,8.50
2022-11-05T06:46:28.856Z,8.50
2022-11-05T06:50:45.622Z,8.50
2022-11-05T06:55:00.716Z,8.60
2022-11-05T06:59:14.816Z,8.60
2022-11-05T07:03:28.633Z,8.60
2022-11-05T07:07:43.973Z,8.70
2022-11-05T07:11:59.115Z,8.80
2022-11-05T07:16:12.822Z,9.00
2022-11-05T07:20:33.274Z,9.00
2022-11-05T07:24:49.458Z,9.10
2022-11-05T07:29:04.618Z,9.30
2022-11-05T07:33:18.493Z,9.40
2022-11-05T07:37:32.154Z,9.60
2022-11-05T07:41:45.890Z,9.80
2022-11-05T07:46:01.289Z,10.30
2022-11-05T07:50:15.887Z,11.20
2022-11-05T07:54:29.714Z,12.30
2022-11-05T07:58:43.413Z,13.40
2022-11-05T08:03:06.653Z,14.40
2022-11-05T08:07:21.666Z,15.20
2022-11-05T08:11:35.910Z,15.90
2022-11-05T08:15:49.593Z,16.30
2022-11-05T08:20:05.339Z,16.60
2022-11-05T08:24:19.048Z,17.00
2022-11-05T08:28:33.052Z,17.50
2022-11-05T08:32:46.802Z,17.80
2022-11-05T08:37:03.296Z,18.00
2022-11-05T08:41:17.006Z,18.00
2022-11-05T08:45:32.028Z,18.20
2022-11-05T08:49:45.796Z,18.60
2022-11-05T08:54:00.940Z,19.00
2022-11-05T08:58:17.120Z,19.30
2022-11-05T09:02:31.039Z,19.40
2022-11-05T09:06:44.975Z,19.60
2022-11-05T09:11:00.132Z,19.50
2022-11-05T09:15:13.836Z,19.40
2022-11-05T09:19:27.598Z,19.20
2022-11-05T09:23:41.351Z,19.00
2022-11-05T09:28:14.655Z,19.00
2022-11-05T09:32:31.794Z,18.90
2022-11-05T09:36:45.467Z,18.80
2022-11-05T09:41:02.073Z,18.70
2022-11-05T09:45:20.249Z,18.80
2022-11-05T09:49:39.908Z,18.80
2022-11-05T09:53:54.567Z,18.80
2022-11-05T09:58:17.406Z,18.70
2022-11-05T10:02:35.801Z,18.70
2022-11-05T10:06:54.222Z,18.60
2022-11-05T10:11:12.834Z,18.80
2022-11-05T10:15:30.762Z,18.80
2022-11-05T10:19:50.569Z,18.80
2022-11-05T10:24:12.217Z,18.80
2022-11-05T10:28:28.462Z,18.90
2022-11-05T10:32:44.912Z,19.00
2022-11-05T10:37:00.239Z,19.20
2022-11-05T10:41:37.838Z,19.50
2022-11-05T10:45:57.297Z,19.80
2022-11-05T10:50:13.777Z,20.00
2022-11-05T10:54:35.236Z,19.90
2022-11-05T10:58:56.607Z,20.00
2022-11-05T11:03:34.029Z,20.20
2022-11-05T11:07:55.226Z,20.20
2022-11-05T11:12:20.402Z,19.70
2022-11-05T11:16:39.683Z,19.00
2022-11-05T11:20:53.701Z,18.80
2022-11-05T11:25:24.338Z,18.80
2022-11-05T11:29:48.952Z,18.90
2022-11-05T11:34:07.084Z,18.60
2022-11-05T11:38:32.471Z,18.20
2022-11-05T11:42:48.752Z,18.30
2022-11-05T11:47:06.380Z,18.80
2022-11-05T11:51:31.427Z,18.90
2022-11-05T11:56:02.118Z,18.50
2022-11-05T12:00:16.624Z,17.80
2022-11-05T12:04:50.996Z,17.30
2022-11-05T12:09:16.895Z,16.80
2022-11-05T12:13:51.737Z,16.50
2022-11-05T12:18:13.655Z,16.10
2022-11-05T12:22:36.759Z,15.90
2022-11-05T12:27:01.858Z,15.40
2022-11-05T12:31:24.097Z,15.00
2022-11-05T12:35:50.989Z,14.70
2022-11-05T12:40:44.831Z,14.50
2022-11-05T12:45:05.129Z,14.40
2022-11-05T12:49:33.532Z,14.50
2022-11-05T12:53:57.358Z,14.70
2022-11-05T12:58:18.918Z,14.90
2022-11-05T13:02:39.305Z,14.90
2022-11-05T13:06:58.321Z,15.00
2022-11-05T13:11:20.155Z,15.10
2022-11-05T13:15:40.274Z,15.20
2022-11-05T13:20:11.714Z,15.40
2022-11-05T13:24:38.893Z,15.60
2022-11-05T13:28:58.385Z,15.60
2022-11-05T13:33:17.403Z,15.40
2022-11-05T13:37:58.357Z,14.90
2022-11-05T13:43:03.072Z,14.60
2022-11-05T13:47:39.834Z,14.20
2022-11-05T13:51:57.350Z,14.00
2022-11-05T13:56:23.077Z,13.80
2022-11-05T14:00:43.705Z,13.70
2022-11-05T14:05:01.634Z,13.60
2022-11-05T14:09:25.132Z,13.50
2022-11-05T14:13:43.517Z,13.50
2022-11-05T14:18:00.193Z,13.40
2022-11-05T14:22:38.104Z,13.30
2022-11-05T14:27:25.359Z,13.20
2022-11-05T14:32:08.851Z,13.00
2022-11-05T14:36:35.281Z,12.90
2022-11-05T14:40:49.666Z,12.80
2022-11-05T14:45:24.239Z,12.70
2022-11-05T14:49:52.974Z,12.60
2022-11-05T14:54:14.747Z,12.60
2022-11-05T14:58:36.578Z,12.50
2022-11-05T15:02:58.351Z,12.50
2022-11-05T15:07:34.803Z,12.40
2022-11-05T15:12:09.029Z,12.20
2022-11-05T15:16:26.457Z,12.20
2022-11-05T15:20:43.303Z,12.00
2022-11-05T15:24:58.711Z,11.90
2022-11-05T15:29:33.105Z,11.80
2022-11-05T15:34:29.026Z,11.60
2022-11-05T15:39:30.939Z,11.50
2022-11-05T23:10:11.689Z,5.10
2022-11-05T23:15:08.607Z,5.00
2022-11-05T23:20:21.011Z,5.30
2022-11-05T23:25:22.260Z,5.60
2022-11-05T23:30:19.970Z,5.90
2022-11-05T23:35:14.786Z,6.10
2022-11-05T23:40:11.421Z,6.20
2022-11-05T23:45:03.646Z,6.30
2022-11-05T23:49:48.718Z,6.30
